Twin Valley, Minnesota
Current Conditions -  °F | °C
As of 1:15 AM on Sunday 23 Nov 2014 (Local Time) from K3N8 Reporting Station
Haze Haze  
Wind Chill: 27°   Ceiling: 500
Heat Index: 33°   Visibility: 5mi
Dew Point: 32°   Wind: 7mph
Humidity: 95%   Direction: 160°SSE
Pressure: 29.35"   Gusts: NA
Location:  47.26°N, 96.26°W
Report Text: K3N8 230715Z AUTO 16006KT 5SM BR OVC005 01/00 A2935 RMK AO2 T00070000
Loading
Personal Weather Stations






























Interactive Weather Map New forecast layout! Learn more

10-Day Weather Forecast

Advertisements
Track Severe Weather on mobile